sensor_id;sensor_type;location;lat;lon;timestamp;P1;durP1;ratioP1;P2;durP2;ratioP2
37647;SDS011;23490;53.656;10.076;2023-03-16T00:02:00;7.68;;;2.15;;
37647;SDS011;23490;53.656;10.076;2023-03-16T00:04:26;8.75;;;2.70;;
37647;SDS011;23490;53.656;10.076;2023-03-16T00:06:51;9.85;;;2.22;;
37647;SDS011;23490;53.656;10.076;2023-03-16T00:09:17;7.72;;;2.30;;
37647;SDS011;23490;53.656;10.076;2023-03-16T00:11:42;7.65;;;2.40;;
37647;SDS011;23490;53.656;10.076;2023-03-16T00:14:07;6.38;;;2.10;;
37647;SDS011;23490;53.656;10.076;2023-03-16T00:16:33;6.75;;;2.05;;
37647;SDS011;23490;53.656;10.076;2023-03-16T00:18:59;9.30;;;2.47;;
37647;SDS011;23490;53.656;10.076;2023-03-16T00:21:27;6.43;;;1.95;;
37647;SDS011;23490;53.656;10.076;2023-03-16T00:23:59;6.50;;;2.00;;
37647;SDS011;23490;53.656;10.076;2023-03-16T00:26:24;10.70;;;1.98;;
37647;SDS011;23490;53.656;10.076;2023-03-16T00:28:49;8.88;;;2.03;;
37647;SDS011;23490;53.656;10.076;2023-03-16T00:31:18;8.77;;;2.92;;
37647;SDS011;23490;53.656;10.076;2023-03-16T00:33:43;13.63;;;2.30;;
37647;SDS011;23490;53.656;10.076;2023-03-16T00:36:09;8.80;;;2.13;;
37647;SDS011;23490;53.656;10.076;2023-03-16T00:38:37;7.75;;;2.17;;
37647;SDS011;23490;53.656;10.076;2023-03-16T00:41:04;9.55;;;2.03;;
37647;SDS011;23490;53.656;10.076;2023-03-16T00:43:32;12.32;;;2.25;;
37647;SDS011;23490;53.656;10.076;2023-03-16T00:46:05;9.38;;;3.00;;
37647;SDS011;23490;53.656;10.076;2023-03-16T00:48:39;8.35;;;1.73;;
37647;SDS011;23490;53.656;10.076;2023-03-16T00:51:07;8.40;;;2.15;;
37647;SDS011;23490;53.656;10.076;2023-03-16T00:56:02;8.93;;;1.88;;
37647;SDS011;23490;53.656;10.076;2023-03-16T00:58:29;9.80;;;1.90;;
37647;SDS011;23490;53.656;10.076;2023-03-16T01:01:01;10.68;;;2.10;;
37647;SDS011;23490;53.656;10.076;2023-03-16T01:03:27;6.18;;;1.83;;
37647;SDS011;23490;53.656;10.076;2023-03-16T01:05:52;8.13;;;1.92;;
37647;SDS011;23490;53.656;10.076;2023-03-16T01:08:18;7.03;;;1.83;;
37647;SDS011;23490;53.656;10.076;2023-03-16T01:10:43;7.88;;;2.38;;
37647;SDS011;23490;53.656;10.076;2023-03-16T01:13:09;10.18;;;1.95;;
37647;SDS011;23490;53.656;10.076;2023-03-16T01:15:37;8.27;;;1.80;;
37647;SDS011;23490;53.656;10.076;2023-03-16T01:18:02;7.13;;;2.40;;
37647;SDS011;23490;53.656;10.076;2023-03-16T01:20:29;8.50;;;2.40;;
37647;SDS011;23490;53.656;10.076;2023-03-16T01:22:54;7.82;;;1.90;;
37647;SDS011;23490;53.656;10.076;2023-03-16T01:25:19;11.02;;;1.90;;
37647;SDS011;23490;53.656;10.076;2023-03-16T01:27:45;8.75;;;1.92;;
37647;SDS011;23490;53.656;10.076;2023-03-16T01:30:10;9.13;;;2.20;;
37647;SDS011;23490;53.656;10.076;2023-03-16T01:32:36;9.43;;;2.63;;
37647;SDS011;23490;53.656;10.076;2023-03-16T01:35:02;8.45;;;2.13;;
37647;SDS011;23490;53.656;10.076;2023-03-16T01:37:29;10.57;;;2.97;;
37647;SDS011;23490;53.656;10.076;2023-03-16T01:39:54;9.00;;;2.63;;
37647;SDS011;23490;53.656;10.076;2023-03-16T01:42:19;5.47;;;2.03;;
37647;SDS011;23490;53.656;10.076;2023-03-16T01:44:56;6.25;;;2.45;;
37647;SDS011;23490;53.656;10.076;2023-03-16T01:47:26;10.23;;;2.33;;
37647;SDS011;23490;53.656;10.076;2023-03-16T01:49:52;13.50;;;3.35;;
37647;SDS011;23490;53.656;10.076;2023-03-16T01:52:21;10.52;;;2.92;;
37647;SDS011;23490;53.656;10.076;2023-03-16T01:54:56;8.60;;;2.97;;
37647;SDS011;23490;53.656;10.076;2023-03-16T01:57:29;13.32;;;3.47;;
37647;SDS011;23490;53.656;10.076;2023-03-16T02:00:04;12.88;;;2.80;;
37647;SDS011;23490;53.656;10.076;2023-03-16T02:02:34;11.82;;;2.28;;
37647;SDS011;23490;53.656;10.076;2023-03-16T02:05:05;7.97;;;3.25;;
37647;SDS011;23490;53.656;10.076;2023-03-16T02:07:42;9.32;;;2.40;;
37647;SDS011;23490;53.656;10.076;2023-03-16T02:10:12;8.35;;;2.95;;
37647;SDS011;23490;53.656;10.076;2023-03-16T02:12:41;7.82;;;2.60;;
37647;SDS011;23490;53.656;10.076;2023-03-16T02:15:07;9.52;;;2.58;;
37647;SDS011;23490;53.656;10.076;2023-03-16T02:17:33;8.95;;;2.65;;
37647;SDS011;23490;53.656;10.076;2023-03-16T02:22:48;7.80;;;2.70;;
37647;SDS011;23490;53.656;10.076;2023-03-16T02:25:18;9.70;;;3.15;;
37647;SDS011;23490;53.656;10.076;2023-03-16T02:27:53;8.38;;;2.40;;
37647;SDS011;23490;53.656;10.076;2023-03-16T02:30:36;12.38;;;2.97;;
37647;SDS011;23490;53.656;10.076;2023-03-16T02:33:02;8.32;;;3.20;;
37647;SDS011;23490;53.656;10.076;2023-03-16T02:35:29;7.05;;;2.80;;
37647;SDS011;23490;53.656;10.076;2023-03-16T02:37:55;16.85;;;3.55;;
37647;SDS011;23490;53.656;10.076;2023-03-16T02:43:14;9.50;;;3.05;;
37647;SDS011;23490;53.656;10.076;2023-03-16T02:45:45;9.98;;;3.22;;
37647;SDS011;23490;53.656;10.076;2023-03-16T02:48:38;8.32;;;2.50;;
37647;SDS011;23490;53.656;10.076;2023-03-16T02:51:09;9.43;;;2.55;;
37647;SDS011;23490;53.656;10.076;2023-03-16T02:53:35;9.88;;;3.13;;
37647;SDS011;23490;53.656;10.076;2023-03-16T02:56:00;10.88;;;3.22;;
37647;SDS011;23490;53.656;10.076;2023-03-16T02:58:29;9.43;;;2.78;;
37647;SDS011;23490;53.656;10.076;2023-03-16T03:00:54;8.55;;;3.25;;
37647;SDS011;23490;53.656;10.076;2023-03-16T03:03:20;11.32;;;3.83;;
37647;SDS011;23490;53.656;10.076;2023-03-16T03:05:46;9.35;;;3.10;;
37647;SDS011;23490;53.656;10.076;2023-03-16T03:08:12;9.25;;;3.10;;
37647;SDS011;23490;53.656;10.076;2023-03-16T03:10:38;9.15;;;3.40;;
37647;SDS011;23490;53.656;10.076;2023-03-16T03:13:04;11.00;;;3.58;;
37647;SDS011;23490;53.656;10.076;2023-03-16T03:15:31;8.70;;;4.18;;
37647;SDS011;23490;53.656;10.076;2023-03-16T03:17:58;9.60;;;3.90;;
37647;SDS011;23490;53.656;10.076;2023-03-16T03:20:23;9.02;;;3.35;;
37647;SDS011;23490;53.656;10.076;2023-03-16T03:22:50;8.98;;;2.60;;
37647;SDS011;23490;53.656;10.076;2023-03-16T03:25:18;9.32;;;3.15;;
37647;SDS011;23490;53.656;10.076;2023-03-16T03:27:46;8.35;;;2.95;;
37647;SDS011;23490;53.656;10.076;2023-03-16T03:30:14;7.05;;;3.00;;
37647;SDS011;23490;53.656;10.076;2023-03-16T03:32:41;9.60;;;2.45;;
37647;SDS011;23490;53.656;10.076;2023-03-16T03:35:08;7.53;;;3.17;;
37647;SDS011;23490;53.656;10.076;2023-03-16T03:37:37;6.95;;;2.72;;
37647;SDS011;23490;53.656;10.076;2023-03-16T03:40:03;7.75;;;2.85;;
37647;SDS011;23490;53.656;10.076;2023-03-16T03:42:29;9.15;;;2.83;;
37647;SDS011;23490;53.656;10.076;2023-03-16T03:44:55;8.63;;;2.53;;
37647;SDS011;23490;53.656;10.076;2023-03-16T03:47:20;9.13;;;2.92;;
37647;SDS011;23490;53.656;10.076;2023-03-16T03:49:45;10.43;;;3.08;;
37647;SDS011;23490;53.656;10.076;2023-03-16T03:52:11;10.63;;;3.63;;
37647;SDS011;23490;53.656;10.076;2023-03-16T03:54:36;5.95;;;2.50;;
37647;SDS011;23490;53.656;10.076;2023-03-16T03:57:02;6.05;;;2.67;;
37647;SDS011;23490;53.656;10.076;2023-03-16T03:59:29;10.93;;;3.03;;
37647;SDS011;23490;53.656;10.076;2023-03-16T04:01:55;10.05;;;3.10;;
37647;SDS011;23490;53.656;10.076;2023-03-16T04:04:21;8.75;;;3.17;;
37647;SDS011;23490;53.656;10.076;2023-03-16T04:06:46;12.25;;;2.90;;
37647;SDS011;23490;53.656;10.076;2023-03-16T04:09:12;6.85;;;2.40;;
37647;SDS011;23490;53.656;10.076;2023-03-16T04:11:38;7.10;;;3.45;;
37647;SDS011;23490;53.656;10.076;2023-03-16T04:14:03;13.20;;;2.50;;
37647;SDS011;23490;53.656;10.076;2023-03-16T04:16:29;9.45;;;3.00;;
37647;SDS011;23490;53.656;10.076;2023-03-16T04:18:55;5.85;;;2.75;;
37647;SDS011;23490;53.656;10.076;2023-03-16T04:21:20;5.63;;;2.33;;
37647;SDS011;23490;53.656;10.076;2023-03-16T04:23:46;7.32;;;2.88;;
37647;SDS011;23490;53.656;10.076;2023-03-16T04:26:13;6.28;;;2.53;;
37647;SDS011;23490;53.656;10.076;2023-03-16T04:28:39;4.75;;;1.92;;
37647;SDS011;23490;53.656;10.076;2023-03-16T04:31:05;8.18;;;2.95;;
37647;SDS011;23490;53.656;10.076;2023-03-16T04:33:32;8.07;;;2.90;;
37647;SDS011;23490;53.656;10.076;2023-03-16T04:35:59;6.50;;;2.30;;
37647;SDS011;23490;53.656;10.076;2023-03-16T04:38:26;7.38;;;2.30;;
37647;SDS011;23490;53.656;10.076;2023-03-16T04:40:52;9.18;;;2.35;;
37647;SDS011;23490;53.656;10.076;2023-03-16T04:43:18;8.45;;;2.30;;
37647;SDS011;23490;53.656;10.076;2023-03-16T04:45:43;9.95;;;2.83;;
37647;SDS011;23490;53.656;10.076;2023-03-16T04:48:08;7.68;;;2.92;;
37647;SDS011;23490;53.656;10.076;2023-03-16T04:50:34;9.43;;;2.72;;
37647;SDS011;23490;53.656;10.076;2023-03-16T04:53:00;5.95;;;2.08;;
37647;SDS011;23490;53.656;10.076;2023-03-16T04:55:25;10.43;;;2.28;;
37647;SDS011;23490;53.656;10.076;2023-03-16T04:57:50;6.25;;;2.47;;
37647;SDS011;23490;53.656;10.076;2023-03-16T05:00:16;8.07;;;2.60;;
37647;SDS011;23490;53.656;10.076;2023-03-16T05:02:47;7.82;;;2.17;;
37647;SDS011;23490;53.656;10.076;2023-03-16T05:05:14;6.68;;;2.20;;
37647;SDS011;23490;53.656;10.076;2023-03-16T05:07:40;6.35;;;2.67;;
37647;SDS011;23490;53.656;10.076;2023-03-16T05:10:10;12.85;;;3.05;;
37647;SDS011;23490;53.656;10.076;2023-03-16T05:12:36;10.27;;;2.33;;
37647;SDS011;23490;53.656;10.076;2023-03-16T05:15:01;6.13;;;2.22;;
37647;SDS011;23490;53.656;10.076;2023-03-16T05:17:26;9.35;;;2.90;;
37647;SDS011;23490;53.656;10.076;2023-03-16T05:19:52;8.50;;;2.35;;
37647;SDS011;23490;53.656;10.076;2023-03-16T05:22:17;8.02;;;2.50;;
37647;SDS011;23490;53.656;10.076;2023-03-16T05:24:43;5.53;;;2.22;;
37647;SDS011;23490;53.656;10.076;2023-03-16T05:27:08;10.80;;;2.53;;
37647;SDS011;23490;53.656;10.076;2023-03-16T05:29:34;6.63;;;2.17;;
37647;SDS011;23490;53.656;10.076;2023-03-16T05:31:59;6.68;;;1.95;;
37647;SDS011;23490;53.656;10.076;2023-03-16T05:34:24;6.53;;;2.00;;
37647;SDS011;23490;53.656;10.076;2023-03-16T05:36:51;9.43;;;2.47;;
37647;SDS011;23490;53.656;10.076;2023-03-16T05:39:16;6.78;;;2.25;;
37647;SDS011;23490;53.656;10.076;2023-03-16T05:41:42;10.48;;;2.80;;
37647;SDS011;23490;53.656;10.076;2023-03-16T05:44:08;3.75;;;1.55;;
37647;SDS011;23490;53.656;10.076;2023-03-16T05:46:34;4.72;;;1.85;;
37647;SDS011;23490;53.656;10.076;2023-03-16T05:49:00;8.70;;;2.30;;
37647;SDS011;23490;53.656;10.076;2023-03-16T05:51:25;6.30;;;2.15;;
37647;SDS011;23490;53.656;10.076;2023-03-16T05:53:51;3.90;;;1.95;;
37647;SDS011;23490;53.656;10.076;2023-03-16T05:56:20;6.65;;;2.17;;
37647;SDS011;23490;53.656;10.076;2023-03-16T05:58:48;6.53;;;1.85;;
37647;SDS011;23490;53.656;10.076;2023-03-16T06:01:14;6.38;;;2.20;;
37647;SDS011;23490;53.656;10.076;2023-03-16T06:03:40;5.88;;;2.25;;
37647;SDS011;23490;53.656;10.076;2023-03-16T06:06:05;7.00;;;1.77;;
37647;SDS011;23490;53.656;10.076;2023-03-16T06:08:31;5.07;;;1.92;;
37647;SDS011;23490;53.656;10.076;2023-03-16T06:10:56;8.27;;;2.20;;
37647;SDS011;23490;53.656;10.076;2023-03-16T06:13:21;7.40;;;2.30;;
37647;SDS011;23490;53.656;10.076;2023-03-16T06:15:48;5.85;;;2.17;;
37647;SDS011;23490;53.656;10.076;2023-03-16T06:18:13;7.78;;;2.72;;
37647;SDS011;23490;53.656;10.076;2023-03-16T06:20:39;7.80;;;2.72;;
37647;SDS011;23490;53.656;10.076;2023-03-16T06:23:04;6.63;;;1.85;;
37647;SDS011;23490;53.656;10.076;2023-03-16T06:25:29;10.35;;;2.75;;
37647;SDS011;23490;53.656;10.076;2023-03-16T06:27:55;7.45;;;1.98;;
37647;SDS011;23490;53.656;10.076;2023-03-16T06:30:21;7.28;;;1.85;;
37647;SDS011;23490;53.656;10.076;2023-03-16T06:32:47;6.55;;;2.10;;
37647;SDS011;23490;53.656;10.076;2023-03-16T06:35:12;3.63;;;1.80;;
37647;SDS011;23490;53.656;10.076;2023-03-16T06:37:38;4.72;;;1.90;;
37647;SDS011;23490;53.656;10.076;2023-03-16T06:40:04;6.65;;;1.90;;
37647;SDS011;23490;53.656;10.076;2023-03-16T06:42:30;6.30;;;2.30;;
37647;SDS011;23490;53.656;10.076;2023-03-16T06:44:55;6.78;;;1.92;;
37647;SDS011;23490;53.656;10.076;2023-03-16T06:47:20;6.32;;;1.92;;
37647;SDS011;23490;53.656;10.076;2023-03-16T06:49:46;5.63;;;2.03;;
37647;SDS011;23490;53.656;10.076;2023-03-16T06:52:12;9.55;;;1.90;;
37647;SDS011;23490;53.656;10.076;2023-03-16T06:54:38;7.40;;;2.78;;
37647;SDS011;23490;53.656;10.076;2023-03-16T06:57:05;4.78;;;1.70;;
37647;SDS011;23490;53.656;10.076;2023-03-16T06:59:31;8.77;;;2.40;;
37647;SDS011;23490;53.656;10.076;2023-03-16T07:01:56;6.28;;;2.15;;
37647;SDS011;23490;53.656;10.076;2023-03-16T07:04:21;6.80;;;2.10;;
37647;SDS011;23490;53.656;10.076;2023-03-16T07:06:47;6.13;;;2.50;;
37647;SDS011;23490;53.656;10.076;2023-03-16T07:09:12;11.02;;;2.60;;
37647;SDS011;23490;53.656;10.076;2023-03-16T07:11:38;6.88;;;1.92;;
37647;SDS011;23490;53.656;10.076;2023-03-16T07:14:04;6.97;;;2.45;;
37647;SDS011;23490;53.656;10.076;2023-03-16T07:16:29;11.13;;;2.15;;
37647;SDS011;23490;53.656;10.076;2023-03-16T07:18:54;6.63;;;2.05;;
37647;SDS011;23490;53.656;10.076;2023-03-16T07:21:20;6.65;;;1.80;;
37647;SDS011;23490;53.656;10.076;2023-03-16T07:23:45;9.30;;;2.53;;
37647;SDS011;23490;53.656;10.076;2023-03-16T07:26:11;14.23;;;2.70;;
37647;SDS011;23490;53.656;10.076;2023-03-16T07:28:37;10.38;;;2.45;;
37647;SDS011;23490;53.656;10.076;2023-03-16T07:31:03;7.15;;;2.00;;
37647;SDS011;23490;53.656;10.076;2023-03-16T07:33:29;8.15;;;2.45;;
37647;SDS011;23490;53.656;10.076;2023-03-16T07:35:56;6.97;;;2.00;;
37647;SDS011;23490;53.656;10.076;2023-03-16T07:38:21;8.00;;;3.17;;
37647;SDS011;23490;53.656;10.076;2023-03-16T07:40:46;5.35;;;2.00;;
37647;SDS011;23490;53.656;10.076;2023-03-16T07:43:12;6.70;;;1.80;;
37647;SDS011;23490;53.656;10.076;2023-03-16T07:45:37;8.93;;;2.10;;
37647;SDS011;23490;53.656;10.076;2023-03-16T07:48:03;3.65;;;1.85;;
37647;SDS011;23490;53.656;10.076;2023-03-16T07:50:28;7.45;;;2.10;;
37647;SDS011;23490;53.656;10.076;2023-03-16T07:52:53;4.72;;;2.05;;
37647;SDS011;23490;53.656;10.076;2023-03-16T07:55:18;5.95;;;2.75;;
37647;SDS011;23490;53.656;10.076;2023-03-16T07:57:44;7.20;;;2.10;;
37647;SDS011;23490;53.656;10.076;2023-03-16T08:00:12;8.60;;;2.38;;
37647;SDS011;23490;53.656;10.076;2023-03-16T08:02:39;6.65;;;2.03;;
37647;SDS011;23490;53.656;10.076;2023-03-16T08:05:04;5.47;;;1.73;;
37647;SDS011;23490;53.656;10.076;2023-03-16T08:07:30;4.45;;;1.85;;
37647;SDS011;23490;53.656;10.076;2023-03-16T08:09:56;8.35;;;2.08;;
37647;SDS011;23490;53.656;10.076;2023-03-16T08:12:22;10.40;;;1.80;;
37647;SDS011;23490;53.656;10.076;2023-03-16T08:14:47;5.43;;;1.70;;
37647;SDS011;23490;53.656;10.076;2023-03-16T08:17:12;4.57;;;1.70;;
37647;SDS011;23490;53.656;10.076;2023-03-16T08:19:38;3.85;;;1.50;;
37647;SDS011;23490;53.656;10.076;2023-03-16T08:22:03;6.78;;;2.15;;
37647;SDS011;23490;53.656;10.076;2023-03-16T08:24:30;6.82;;;1.60;;
37647;SDS011;23490;53.656;10.076;2023-03-16T08:26:56;5.45;;;2.63;;
37647;SDS011;23490;53.656;10.076;2023-03-16T08:29:22;7.72;;;1.40;;
37647;SDS011;23490;53.656;10.076;2023-03-16T08:31:49;6.10;;;1.45;;
37647;SDS011;23490;53.656;10.076;2023-03-16T08:34:14;5.03;;;1.52;;
37647;SDS011;23490;53.656;10.076;2023-03-16T08:36:40;8.75;;;2.00;;
37647;SDS011;23490;53.656;10.076;2023-03-16T08:39:08;7.30;;;1.67;;
37647;SDS011;23490;53.656;10.076;2023-03-16T08:41:33;6.88;;;1.67;;
37647;SDS011;23490;53.656;10.076;2023-03-16T08:43:59;7.15;;;2.22;;
37647;SDS011;23490;53.656;10.076;2023-03-16T08:46:25;12.68;;;1.77;;
37647;SDS011;23490;53.656;10.076;2023-03-16T08:48:50;5.40;;;2.00;;
37647;SDS011;23490;53.656;10.076;2023-03-16T08:51:16;5.68;;;1.52;;
37647;SDS011;23490;53.656;10.076;2023-03-16T08:53:42;4.57;;;1.85;;
37647;SDS011;23490;53.656;10.076;2023-03-16T08:56:09;6.68;;;1.50;;
37647;SDS011;23490;53.656;10.076;2023-03-16T08:58:37;4.82;;;1.33;;
37647;SDS011;23490;53.656;10.076;2023-03-16T09:01:04;4.82;;;1.50;;
37647;SDS011;23490;53.656;10.076;2023-03-16T09:03:31;7.78;;;1.73;;
37647;SDS011;23490;53.656;10.076;2023-03-16T09:06:01;5.70;;;1.80;;
37647;SDS011;23490;53.656;10.076;2023-03-16T09:08:27;4.10;;;1.65;;
37647;SDS011;23490;53.656;10.076;2023-03-16T09:10:59;5.72;;;1.52;;
37647;SDS011;23490;53.656;10.076;2023-03-16T09:13:27;5.60;;;1.83;;
37647;SDS011;23490;53.656;10.076;2023-03-16T09:15:52;5.40;;;1.45;;
37647;SDS011;23490;53.656;10.076;2023-03-16T09:18:18;2.88;;;1.38;;
37647;SDS011;23490;53.656;10.076;2023-03-16T09:20:44;6.10;;;2.03;;
37647;SDS011;23490;53.656;10.076;2023-03-16T09:23:11;3.00;;;1.23;;
37647;SDS011;23490;53.656;10.076;2023-03-16T09:25:38;8.18;;;1.10;;
37647;SDS011;23490;53.656;10.076;2023-03-16T09:28:03;2.92;;;1.00;;
37647;SDS011;23490;53.656;10.076;2023-03-16T09:30:29;5.70;;;1.60;;
37647;SDS011;23490;53.656;10.076;2023-03-16T09:32:54;4.13;;;1.50;;
37647;SDS011;23490;53.656;10.076;2023-03-16T09:35:20;5.65;;;1.17;;
37647;SDS011;23490;53.656;10.076;2023-03-16T09:37:45;5.97;;;1.10;;
37647;SDS011;23490;53.656;10.076;2023-03-16T09:40:13;6.45;;;2.05;;
37647;SDS011;23490;53.656;10.076;2023-03-16T09:42:51;2.92;;;1.08;;
37647;SDS011;23490;53.656;10.076;2023-03-16T09:45:47;3.78;;;0.90;;
37647;SDS011;23490;53.656;10.076;2023-03-16T09:48:22;3.55;;;1.20;;
37647;SDS011;23490;53.656;10.076;2023-03-16T09:50:49;3.42;;;1.13;;
37647;SDS011;23490;53.656;10.076;2023-03-16T09:53:25;4.10;;;1.38;;
37647;SDS011;23490;53.656;10.076;2023-03-16T09:55:57;5.85;;;1.27;;
37647;SDS011;23490;53.656;10.076;2023-03-16T09:58:33;5.10;;;1.73;;
37647;SDS011;23490;53.656;10.076;2023-03-16T10:06:37;4.25;;;1.13;;
37647;SDS011;23490;53.656;10.076;2023-03-16T10:09:16;2.90;;;0.88;;
37647;SDS011;23490;53.656;10.076;2023-03-16T10:11:52;3.20;;;1.05;;
37647;SDS011;23490;53.656;10.076;2023-03-16T10:14:26;4.22;;;1.30;;
37647;SDS011;23490;53.656;10.076;2023-03-16T10:17:12;4.22;;;0.95;;
37647;SDS011;23490;53.656;10.076;2023-03-16T10:19:49;2.42;;;0.93;;
37647;SDS011;23490;53.656;10.076;2023-03-16T10:22:20;3.55;;;1.13;;
37647;SDS011;23490;53.656;10.076;2023-03-16T10:27:44;6.22;;;0.98;;
37647;SDS011;23490;53.656;10.076;2023-03-16T10:32:43;4.97;;;1.10;;
37647;SDS011;23490;53.656;10.076;2023-03-16T10:38:25;2.22;;;0.65;;
37647;SDS011;23490;53.656;10.076;2023-03-16T10:43:54;2.75;;;0.77;;
37647;SDS011;23490;53.656;10.076;2023-03-16T10:46:23;2.13;;;0.88;;
37647;SDS011;23490;53.656;10.076;2023-03-16T10:48:57;2.58;;;0.60;;
37647;SDS011;23490;53.656;10.076;2023-03-16T10:51:25;3.28;;;0.90;;
37647;SDS011;23490;53.656;10.076;2023-03-16T10:53:55;4.47;;;0.70;;
37647;SDS011;23490;53.656;10.076;2023-03-16T10:56:30;6.45;;;1.10;;
37647;SDS011;23490;53.656;10.076;2023-03-16T10:58:59;2.50;;;0.90;;
37647;SDS011;23490;53.656;10.076;2023-03-16T11:01:26;3.13;;;0.80;;
37647;SDS011;23490;53.656;10.076;2023-03-16T11:03:53;3.63;;;0.80;;
37647;SDS011;23490;53.656;10.076;2023-03-16T11:06:28;3.83;;;0.70;;
37647;SDS011;23490;53.656;10.076;2023-03-16T11:09:02;1.55;;;0.75;;
37647;SDS011;23490;53.656;10.076;2023-03-16T11:11:36;3.00;;;0.80;;
37647;SDS011;23490;53.656;10.076;2023-03-16T11:14:03;4.22;;;0.68;;
37647;SDS011;23490;53.656;10.076;2023-03-16T11:19:28;1.45;;;0.68;;
37647;SDS011;23490;53.656;10.076;2023-03-16T11:27:09;2.55;;;0.50;;
37647;SDS011;23490;53.656;10.076;2023-03-16T11:32:53;2.83;;;0.50;;
37647;SDS011;23490;53.656;10.076;2023-03-16T11:35:21;3.10;;;0.65;;
37647;SDS011;23490;53.656;10.076;2023-03-16T11:40:37;1.67;;;0.50;;
37647;SDS011;23490;53.656;10.076;2023-03-16T11:48:23;2.63;;;0.50;;
37647;SDS011;23490;53.656;10.076;2023-03-16T11:51:04;3.05;;;0.80;;
37647;SDS011;23490;53.656;10.076;2023-03-16T11:56:41;3.15;;;0.57;;
37647;SDS011;23490;53.656;10.076;2023-03-16T11:59:27;1.27;;;0.52;;
37647;SDS011;23490;53.656;10.076;2023-03-16T12:02:04;1.90;;;0.60;;
37647;SDS011;23490;53.656;10.076;2023-03-16T12:04:55;1.90;;;0.55;;
37647;SDS011;23490;53.656;10.076;2023-03-16T12:10:20;2.38;;;0.93;;
37647;SDS011;23490;53.656;10.076;2023-03-16T12:15:28;2.28;;;0.50;;
37647;SDS011;23490;53.656;10.076;2023-03-16T12:18:07;2.30;;;0.47;;
37647;SDS011;23490;53.656;10.076;2023-03-16T12:21:00;1.98;;;0.45;;
37647;SDS011;23490;53.656;10.076;2023-03-16T12:23:33;1.45;;;0.57;;
37647;SDS011;23490;53.656;10.076;2023-03-16T12:26:00;4.97;;;0.80;;
37647;SDS011;23490;53.656;10.076;2023-03-16T12:28:28;2.67;;;0.47;;
37647;SDS011;23490;53.656;10.076;2023-03-16T12:35:58;1.77;;;0.45;;
37647;SDS011;23490;53.656;10.076;2023-03-16T12:38:51;1.67;;;0.45;;
37647;SDS011;23490;53.656;10.076;2023-03-16T12:44:16;1.35;;;0.50;;
37647;SDS011;23490;53.656;10.076;2023-03-16T12:49:44;2.35;;;0.60;;
37647;SDS011;23490;53.656;10.076;2023-03-16T12:52:11;3.17;;;0.52;;
37647;SDS011;23490;53.656;10.076;2023-03-16T12:54:48;0.68;;;0.40;;
37647;SDS011;23490;53.656;10.076;2023-03-16T12:57:19;2.53;;;0.50;;
37647;SDS011;23490;53.656;10.076;2023-03-16T13:02:28;3.28;;;0.60;;
37647;SDS011;23490;53.656;10.076;2023-03-16T13:05:00;1.65;;;0.50;;
37647;SDS011;23490;53.656;10.076;2023-03-16T13:07:31;1.75;;;0.55;;
37647;SDS011;23490;53.656;10.076;2023-03-16T13:10:08;1.95;;;0.73;;
37647;SDS011;23490;53.656;10.076;2023-03-16T13:12:37;3.03;;;0.60;;
37647;SDS011;23490;53.656;10.076;2023-03-16T13:15:27;3.70;;;0.55;;
37647;SDS011;23490;53.656;10.076;2023-03-16T13:21:19;1.20;;;0.50;;
37647;SDS011;23490;53.656;10.076;2023-03-16T13:23:20;2.10;;;0.47;;
37647;SDS011;23490;53.656;10.076;2023-03-16T13:28:41;2.25;;;0.82;;
37647;SDS011;23490;53.656;10.076;2023-03-16T13:31:20;1.13;;;0.47;;
37647;SDS011;23490;53.656;10.076;2023-03-16T13:33:54;1.52;;;0.50;;
37647;SDS011;23490;53.656;10.076;2023-03-16T13:36:25;1.75;;;0.60;;
37647;SDS011;23490;53.656;10.076;2023-03-16T13:38:55;4.63;;;0.70;;
37647;SDS011;23490;53.656;10.076;2023-03-16T13:41:27;1.63;;;0.40;;
37647;SDS011;23490;53.656;10.076;2023-03-16T13:43:52;1.52;;;0.70;;
37647;SDS011;23490;53.656;10.076;2023-03-16T13:46:19;1.25;;;0.60;;
37647;SDS011;23490;53.656;10.076;2023-03-16T13:48:46;2.83;;;0.90;;
37647;SDS011;23490;53.656;10.076;2023-03-16T13:51:16;2.67;;;0.35;;
37647;SDS011;23490;53.656;10.076;2023-03-16T13:53:45;2.63;;;0.70;;
37647;SDS011;23490;53.656;10.076;2023-03-16T13:56:12;2.67;;;0.50;;
37647;SDS011;23490;53.656;10.076;2023-03-16T13:58:39;1.30;;;0.40;;
37647;SDS011;23490;53.656;10.076;2023-03-16T14:01:15;2.78;;;0.50;;
37647;SDS011;23490;53.656;10.076;2023-03-16T14:03:49;1.53;;;0.40;;
37647;SDS011;23490;53.656;10.076;2023-03-16T14:06:28;1.60;;;0.73;;
37647;SDS011;23490;53.656;10.076;2023-03-16T14:08:59;1.35;;;0.55;;
37647;SDS011;23490;53.656;10.076;2023-03-16T14:11:27;2.10;;;0.63;;
37647;SDS011;23490;53.656;10.076;2023-03-16T14:13:57;2.13;;;0.73;;
37647;SDS011;23490;53.656;10.076;2023-03-16T14:16:25;1.17;;;0.50;;
37647;SDS011;23490;53.656;10.076;2023-03-16T14:21:28;1.90;;;0.40;;
37647;SDS011;23490;53.656;10.076;2023-03-16T14:23:57;2.08;;;0.50;;
37647;SDS011;23490;53.656;10.076;2023-03-16T14:26:24;2.60;;;0.65;;
37647;SDS011;23490;53.656;10.076;2023-03-16T14:29:00;0.88;;;0.30;;
37647;SDS011;23490;53.656;10.076;2023-03-16T14:31:43;1.25;;;0.50;;
37647;SDS011;23490;53.656;10.076;2023-03-16T14:34:29;2.08;;;0.43;;
37647;SDS011;23490;53.656;10.076;2023-03-16T14:37:10;1.85;;;0.45;;
37647;SDS011;23490;53.656;10.076;2023-03-16T14:39:37;2.25;;;0.55;;
37647;SDS011;23490;53.656;10.076;2023-03-16T14:42:04;2.00;;;0.70;;
37647;SDS011;23490;53.656;10.076;2023-03-16T14:44:38;0.70;;;0.30;;
37647;SDS011;23490;53.656;10.076;2023-03-16T14:47:04;1.83;;;0.57;;
37647;SDS011;23490;53.656;10.076;2023-03-16T14:49:31;1.17;;;0.45;;
37647;SDS011;23490;53.656;10.076;2023-03-16T14:52:06;2.58;;;0.70;;
37647;SDS011;23490;53.656;10.076;2023-03-16T14:54:41;0.70;;;0.50;;
37647;SDS011;23490;53.656;10.076;2023-03-16T14:57:11;2.53;;;0.98;;
37647;SDS011;23490;53.656;10.076;2023-03-16T15:03:04;1.40;;;0.55;;
37647;SDS011;23490;53.656;10.076;2023-03-16T15:05:36;1.35;;;0.50;;
37647;SDS011;23490;53.656;10.076;2023-03-16T15:08:04;1.40;;;0.43;;
37647;SDS011;23490;53.656;10.076;2023-03-16T15:10:35;1.02;;;0.45;;
37647;SDS011;23490;53.656;10.076;2023-03-16T15:13:01;2.50;;;0.40;;
37647;SDS011;23490;53.656;10.076;2023-03-16T15:15:37;3.03;;;0.63;;
37647;SDS011;23490;53.656;10.076;2023-03-16T15:18:04;3.88;;;0.47;;
37647;SDS011;23490;53.656;10.076;2023-03-16T15:20:38;1.95;;;0.45;;
37647;SDS011;23490;53.656;10.076;2023-03-16T15:23:09;2.70;;;0.50;;
37647;SDS011;23490;53.656;10.076;2023-03-16T15:25:41;1.55;;;0.63;;
37647;SDS011;23490;53.656;10.076;2023-03-16T15:30:39;1.38;;;0.30;;
37647;SDS011;23490;53.656;10.076;2023-03-16T15:33:07;2.65;;;0.50;;
37647;SDS011;23490;53.656;10.076;2023-03-16T15:35:33;2.25;;;0.60;;
37647;SDS011;23490;53.656;10.076;2023-03-16T15:38:00;4.18;;;1.45;;
37647;SDS011;23490;53.656;10.076;2023-03-16T15:40:29;2.55;;;0.60;;
37647;SDS011;23490;53.656;10.076;2023-03-16T15:42:55;1.38;;;0.77;;
37647;SDS011;23490;53.656;10.076;2023-03-16T15:45:21;1.95;;;0.40;;
37647;SDS011;23490;53.656;10.076;2023-03-16T15:47:47;2.42;;;0.65;;
37647;SDS011;23490;53.656;10.076;2023-03-16T15:50:14;1.48;;;0.50;;
37647;SDS011;23490;53.656;10.076;2023-03-16T15:52:43;1.52;;;0.68;;
37647;SDS011;23490;53.656;10.076;2023-03-16T15:55:21;2.30;;;0.70;;
37647;SDS011;23490;53.656;10.076;2023-03-16T15:57:54;2.83;;;0.60;;
37647;SDS011;23490;53.656;10.076;2023-03-16T16:00:27;1.27;;;0.57;;
37647;SDS011;23490;53.656;10.076;2023-03-16T16:03:02;5.20;;;0.88;;